createdAt,value
2023-11-25T00:01:48.518Z,1.05
2023-11-25T00:04:23.148Z,3.03
2023-11-25T00:06:57.968Z,2.00
2023-11-25T00:09:33.125Z,4.07
2023-11-25T00:12:08.945Z,2.53
2023-11-25T00:14:44.937Z,5.90
2023-11-25T00:17:19.928Z,1.42
2023-11-25T00:19:54.191Z,0.60
2023-11-25T00:22:28.547Z,0.95
2023-11-25T00:25:05.480Z,1.75
2023-11-25T00:27:39.725Z,1.75
2023-11-25T00:30:16.402Z,1.15
2023-11-25T00:32:50.733Z,1.42
2023-11-25T00:35:25.138Z,1.20
2023-11-25T00:37:59.415Z,2.65
2023-11-25T00:40:35.902Z,1.30
2023-11-25T00:43:11.492Z,3.47
2023-11-25T00:45:47.522Z,1.25
2023-11-25T00:48:21.818Z,1.70
2023-11-25T00:50:55.991Z,3.75
2023-11-25T00:53:30.552Z,1.95
2023-11-25T00:56:04.768Z,2.70
2023-11-25T00:58:39.063Z,1.42
2023-11-25T01:01:14.886Z,1.27
2023-11-25T01:03:49.128Z,2.90
2023-11-25T01:06:23.343Z,1.25
2023-11-25T01:08:57.458Z,1.52
2023-11-25T01:11:31.710Z,1.58
2023-11-25T01:14:06.666Z,1.17
2023-11-25T01:16:42.510Z,0.88
2023-11-25T01:19:17.018Z,0.90
2023-11-25T01:21:51.779Z,1.30
2023-11-25T01:24:26.006Z,3.05
2023-11-25T01:27:00.261Z,0.95
2023-11-25T01:29:36.298Z,1.85
2023-11-25T01:32:11.867Z,1.25
2023-11-25T01:34:46.229Z,4.67
2023-11-25T01:37:23.607Z,3.00
2023-11-25T01:39:57.756Z,1.17
2023-11-25T01:42:32.422Z,1.13
2023-11-25T01:45:09.661Z,1.23
2023-11-25T01:47:45.436Z,2.03
2023-11-25T01:50:19.742Z,0.17
2023-11-25T01:52:54.753Z,1.83
2023-11-25T01:55:29.684Z,0.67
2023-11-25T01:58:04.577Z,0.60
2023-11-25T02:00:40.964Z,1.60
2023-11-25T02:03:16.842Z,2.60
2023-11-25T02:05:51.150Z,5.53
2023-11-25T02:08:25.343Z,1.10
2023-11-25T02:11:01.792Z,3.03
2023-11-25T02:13:37.057Z,3.00
2023-11-25T02:16:12.018Z,1.70
2023-11-25T02:18:47.699Z,2.97
2023-11-25T02:21:22.120Z,2.77
2023-11-25T02:23:57.670Z,1.20
2023-11-25T02:26:31.976Z,1.33
2023-11-25T02:29:06.885Z,2.57
2023-11-25T02:31:44.097Z,2.90
2023-11-25T02:34:18.534Z,2.30
2023-11-25T02:36:52.652Z,3.87
2023-11-25T02:39:29.502Z,1.77
2023-11-25T02:42:06.989Z,1.50
2023-11-25T02:44:42.099Z,1.03
2023-11-25T02:47:16.283Z,1.20
2023-11-25T02:49:51.495Z,2.37
2023-11-25T02:52:27.518Z,2.77
2023-11-25T02:55:03.459Z,2.90
2023-11-25T02:57:38.229Z,1.33
2023-11-25T03:00:18.669Z,3.70
2023-11-25T03:03:01.150Z,1.05
2023-11-25T03:05:35.741Z,0.53
2023-11-25T03:08:13.653Z,2.07
2023-11-25T03:10:51.955Z,1.97
2023-11-25T03:13:26.415Z,1.23
2023-11-25T03:16:00.732Z,0.77
2023-11-25T03:18:35.729Z,4.77
2023-11-25T03:21:11.299Z,1.00
2023-11-25T03:23:45.433Z,2.23
2023-11-25T03:26:21.051Z,1.47
2023-11-25T03:28:56.392Z,0.60
2023-11-25T03:31:30.825Z,1.43
2023-11-25T03:34:06.070Z,1.93
2023-11-25T03:36:41.150Z,0.93
2023-11-25T03:39:15.377Z,3.77
2023-11-25T03:41:50.807Z,0.77
2023-11-25T03:44:25.560Z,0.80
2023-11-25T03:47:00.354Z,0.90
2023-11-25T03:49:36.640Z,3.73
2023-11-25T03:52:11.289Z,2.87
2023-11-25T03:54:45.502Z,4.83
2023-11-25T03:57:22.820Z,1.40
2023-11-25T03:59:57.003Z,1.33
2023-11-25T04:02:31.213Z,1.20
2023-11-25T04:05:06.196Z,1.47
2023-11-25T04:07:42.542Z,1.40
2023-11-25T04:10:17.319Z,0.87
2023-11-25T04:12:53.672Z,3.83
2023-11-25T04:15:28.142Z,3.10
2023-11-25T04:18:02.395Z,4.43
2023-11-25T04:20:36.776Z,2.73
2023-11-25T04:23:11.790Z,0.90
2023-11-25T04:25:46.806Z,0.97
2023-11-25T04:28:22.281Z,3.73
2023-11-25T04:30:56.405Z,1.20
2023-11-25T04:33:30.502Z,1.87
2023-11-25T04:36:05.330Z,1.63
2023-11-25T04:38:43.161Z,2.53
2023-11-25T04:41:17.780Z,4.40
2023-11-25T04:43:53.660Z,2.03
2023-11-25T04:46:28.488Z,1.50
2023-11-25T04:49:03.159Z,1.17
2023-11-25T04:51:37.581Z,0.87
2023-11-25T04:54:12.328Z,4.13
2023-11-25T04:56:46.453Z,2.80
2023-11-25T04:59:21.964Z,1.93
2023-11-25T05:01:56.149Z,2.93
2023-11-25T05:04:31.047Z,3.90
2023-11-25T05:07:06.332Z,1.07
2023-11-25T05:09:42.553Z,2.40
2023-11-25T05:12:16.740Z,2.20
2023-11-25T05:14:52.294Z,1.45
2023-11-25T05:17:28.769Z,2.03
2023-11-25T05:20:03.209Z,2.63
2023-11-25T05:22:40.092Z,2.67
2023-11-25T05:25:14.804Z,2.85
2023-11-25T05:27:49.289Z,2.90
2023-11-25T05:30:24.745Z,2.95
2023-11-25T05:32:58.868Z,0.75
2023-11-25T05:35:33.153Z,3.10
2023-11-25T05:38:07.323Z,2.22
2023-11-25T05:40:42.597Z,6.53
2023-11-25T05:43:17.784Z,1.42
2023-11-25T05:45:53.401Z,2.05
2023-11-25T05:48:28.505Z,4.40
2023-11-25T05:51:02.677Z,21.55
2023-11-25T05:53:37.081Z,30.50
2023-11-25T05:56:11.209Z,44.28
2023-11-25T05:58:45.730Z,16.17
2023-11-25T06:01:23.109Z,10.30
2023-11-25T06:03:58.098Z,5.67
2023-11-25T06:06:32.366Z,4.67
2023-11-25T06:09:09.937Z,5.53
2023-11-25T06:11:44.201Z,9.43
2023-11-25T06:14:20.413Z,9.73
2023-11-25T06:16:58.451Z,13.97
2023-11-25T06:19:33.296Z,8.63
2023-11-25T06:22:08.328Z,9.17
2023-11-25T06:24:42.830Z,7.80
2023-11-25T06:27:17.415Z,5.17
2023-11-25T06:29:51.564Z,6.70
2023-11-25T06:32:28.646Z,2.80
2023-11-25T06:35:02.972Z,4.03
2023-11-25T06:37:43.789Z,2.80
2023-11-25T06:40:18.363Z,2.37
2023-11-25T06:42:54.530Z,1.17
2023-11-25T06:45:28.916Z,1.97
2023-11-25T06:48:04.828Z,1.97
2023-11-25T06:50:41.045Z,13.73
2023-11-25T06:53:15.566Z,3.40
2023-11-25T06:55:50.194Z,3.50
2023-11-25T06:58:24.366Z,4.47
2023-11-25T07:01:01.900Z,4.43
2023-11-25T07:03:37.758Z,2.70
2023-11-25T07:06:12.127Z,2.80
2023-11-25T07:08:46.916Z,2.00
2023-11-25T07:11:22.963Z,2.77
2023-11-25T07:13:57.336Z,4.03
2023-11-25T07:16:31.903Z,1.70
2023-11-25T07:19:09.307Z,3.17
2023-11-25T07:21:43.546Z,2.77
2023-11-25T07:24:17.779Z,2.03
2023-11-25T07:26:56.667Z,3.60
2023-11-25T07:29:32.915Z,1.90
2023-11-25T07:32:11.395Z,1.90
2023-11-25T07:34:47.301Z,5.87
2023-11-25T07:37:21.591Z,3.23
2023-11-25T07:39:55.862Z,2.80
2023-11-25T07:42:30.150Z,3.58
2023-11-25T07:45:11.308Z,2.87
2023-11-25T07:47:46.305Z,3.00
2023-11-25T07:50:23.000Z,1.30
2023-11-25T07:52:57.245Z,1.70
2023-11-25T07:55:31.625Z,3.03
2023-11-25T07:58:06.639Z,2.40
2023-11-25T08:00:44.266Z,2.20
2023-11-25T08:03:18.541Z,1.95
2023-11-25T08:05:54.808Z,4.57
2023-11-25T08:08:28.928Z,1.73
2023-11-25T08:11:03.277Z,5.85
2023-11-25T08:13:40.906Z,10.57
2023-11-25T08:16:15.243Z,5.90
2023-11-25T08:18:50.537Z,4.35
2023-11-25T08:21:26.035Z,4.95
2023-11-25T08:24:01.402Z,3.28
2023-11-25T08:26:36.684Z,3.25
2023-11-25T08:29:12.742Z,2.15
2023-11-25T08:31:47.029Z,4.22
2023-11-25T08:34:21.210Z,2.10
2023-11-25T08:36:57.648Z,2.47
2023-11-25T08:39:33.932Z,2.63
2023-11-25T08:42:10.415Z,2.03
2023-11-25T08:44:46.599Z,3.53
2023-11-25T08:47:21.068Z,2.13
2023-11-25T08:49:55.208Z,2.20
2023-11-25T08:52:35.266Z,1.13
2023-11-25T08:55:11.286Z,2.15
2023-11-25T08:57:45.637Z,2.08
2023-11-25T09:00:21.721Z,2.15
2023-11-25T09:02:58.966Z,3.25
2023-11-25T09:05:34.962Z,3.42
2023-11-25T09:08:11.536Z,3.40
2023-11-25T09:10:45.981Z,3.03
2023-11-25T09:13:20.678Z,3.28
2023-11-25T09:15:54.999Z,5.95
2023-11-25T09:18:29.191Z,1.45
2023-11-25T09:21:03.497Z,2.85
2023-11-25T09:23:40.140Z,3.47
2023-11-25T09:26:14.996Z,2.38
2023-11-25T09:28:49.170Z,2.35
2023-11-25T09:31:23.929Z,1.70
2023-11-25T09:34:00.064Z,2.35
2023-11-25T09:36:34.686Z,4.13
2023-11-25T09:39:11.168Z,1.90
2023-11-25T09:41:45.477Z,1.73
2023-11-25T09:44:20.812Z,2.80
2023-11-25T09:46:55.195Z,4.07
2023-11-25T09:49:29.459Z,2.03
2023-11-25T09:52:05.693Z,2.25
2023-11-25T09:54:41.213Z,1.83
2023-11-25T09:57:19.171Z,2.30
2023-11-25T09:59:53.433Z,5.35
2023-11-25T10:02:31.189Z,2.97
2023-11-25T10:05:08.067Z,3.10
2023-11-25T10:07:43.330Z,2.92
2023-11-25T10:10:25.016Z,2.40
2023-11-25T10:13:01.497Z,4.38
2023-11-25T10:15:47.646Z,1.65
2023-11-25T10:18:21.993Z,1.65
2023-11-25T10:20:59.142Z,1.77
2023-11-25T10:23:34.011Z,2.65
2023-11-25T10:26:09.863Z,4.93
2023-11-25T10:28:47.493Z,1.98
2023-11-25T10:31:21.953Z,2.75
2023-11-25T10:33:58.336Z,2.50
2023-11-25T10:36:32.481Z,1.90
2023-11-25T10:39:09.469Z,5.95
2023-11-25T10:41:51.231Z,4.00
2023-11-25T10:44:28.290Z,5.50
2023-11-25T10:47:03.844Z,5.55
2023-11-25T10:49:40.920Z,3.55
2023-11-25T10:52:15.115Z,2.05
2023-11-25T10:54:51.032Z,3.05
2023-11-25T10:57:27.151Z,4.35
2023-11-25T11:00:05.151Z,4.97
2023-11-25T11:02:46.625Z,3.47
2023-11-25T11:05:40.964Z,4.57
2023-11-25T11:08:20.193Z,3.85
2023-11-25T11:10:58.027Z,1.98
2023-11-25T11:13:38.410Z,5.13
2023-11-25T11:16:19.674Z,5.65
2023-11-25T11:18:56.855Z,7.60
2023-11-25T11:21:36.882Z,3.63
2023-11-25T11:24:13.882Z,4.82
2023-11-25T11:26:56.930Z,11.35
2023-11-25T11:29:41.390Z,2.65
2023-11-25T11:32:21.263Z,6.32
2023-11-25T11:34:55.662Z,7.20
2023-11-25T11:37:39.015Z,5.63
2023-11-25T11:40:15.476Z,8.65
2023-11-25T11:42:49.909Z,3.22
2023-11-25T11:45:27.389Z,5.03
2023-11-25T11:48:04.351Z,1.85
2023-11-25T11:50:42.664Z,3.15
2023-11-25T11:53:17.299Z,3.45
2023-11-25T11:55:54.779Z,4.88
2023-11-25T11:58:31.858Z,3.25
2023-11-25T12:01:11.003Z,3.33
2023-11-25T12:03:45.707Z,4.38
2023-11-25T12:06:23.250Z,2.05
2023-11-25T12:08:58.248Z,0.55
2023-11-25T12:11:32.603Z,4.18
2023-11-25T12:14:07.712Z,2.75
2023-11-25T12:16:43.626Z,2.08
2023-11-25T12:19:19.256Z,3.25
2023-11-25T12:21:53.587Z,3.22
2023-11-25T12:24:27.850Z,1.83
2023-11-25T12:27:04.360Z,2.45
2023-11-25T12:29:38.727Z,2.35
2023-11-25T12:32:14.304Z,2.20
2023-11-25T12:34:50.193Z,1.00
2023-11-25T12:37:24.320Z,2.85
2023-11-25T12:39:58.595Z,2.17
2023-11-25T12:42:35.226Z,1.65
2023-11-25T12:45:09.757Z,2.85
2023-11-25T12:47:51.636Z,2.47
2023-11-25T12:50:26.712Z,1.75
2023-11-25T12:53:09.413Z,2.83
2023-11-25T12:55:45.356Z,4.45
2023-11-25T12:58:21.557Z,5.60
2023-11-25T13:00:57.651Z,3.58
2023-11-25T13:03:33.989Z,2.60
2023-11-25T13:06:10.864Z,1.50
2023-11-25T13:08:47.465Z,3.58
2023-11-25T13:11:21.640Z,3.92
2023-11-25T13:13:57.451Z,2.13
2023-11-25T13:16:31.673Z,5.50
2023-11-25T13:19:09.903Z,4.38
2023-11-25T13:21:44.119Z,4.65
2023-11-25T13:24:18.389Z,5.82
2023-11-25T13:26:52.546Z,5.00
2023-11-25T13:29:26.600Z,5.00
2023-11-25T13:32:00.768Z,7.60
2023-11-25T13:34:36.288Z,2.63
2023-11-25T13:37:10.386Z,1.52
2023-11-25T13:39:45.043Z,4.00
2023-11-25T13:42:19.183Z,2.33
2023-11-25T13:44:53.239Z,4.35
2023-11-25T13:47:27.462Z,5.18
2023-11-25T13:50:03.005Z,1.88
2023-11-25T13:52:37.497Z,1.60
2023-11-25T13:55:15.012Z,2.15
2023-11-25T13:57:49.332Z,3.22
2023-11-25T14:00:27.656Z,1.25
2023-11-25T14:03:02.514Z,4.30
2023-11-25T14:05:39.422Z,2.30
2023-11-25T14:08:17.115Z,3.55
2023-11-25T14:10:51.298Z,2.33
2023-11-25T14:13:25.444Z,1.65
2023-11-25T14:16:00.140Z,3.58
2023-11-25T14:18:34.277Z,2.40
2023-11-25T14:21:10.970Z,3.65
2023-11-25T14:23:45.040Z,1.73
2023-11-25T14:26:19.148Z,2.78
2023-11-25T14:28:53.335Z,2.13
2023-11-25T14:31:27.721Z,2.97
2023-11-25T14:34:02.036Z,1.65
2023-11-25T14:36:38.492Z,1.38
2023-11-25T14:39:19.309Z,2.65
2023-11-25T14:41:53.387Z,3.45
2023-11-25T14:44:27.481Z,2.35
2023-11-25T14:47:01.647Z,1.48
2023-11-25T14:49:35.820Z,2.00
2023-11-25T14:52:11.912Z,2.03
2023-11-25T14:54:46.058Z,3.47
2023-11-25T14:57:20.168Z,0.95
2023-11-25T14:59:54.687Z,2.17
2023-11-25T15:02:29.367Z,2.88
2023-11-25T15:05:03.952Z,1.92
2023-11-25T15:07:40.518Z,0.90
2023-11-25T15:10:14.724Z,3.08
2023-11-25T15:12:49.232Z,2.17
2023-11-25T15:15:23.344Z,2.88
2023-11-25T15:17:57.558Z,2.00
2023-11-25T15:20:31.713Z,2.75
2023-11-25T15:23:07.466Z,2.70
2023-11-25T15:25:42.179Z,1.30
2023-11-25T15:28:17.324Z,2.42
2023-11-25T15:30:51.535Z,3.13
2023-11-25T15:33:25.749Z,3.33
2023-11-25T15:35:59.955Z,3.92
2023-11-25T15:38:35.531Z,1.77
2023-11-25T15:41:12.137Z,5.22
2023-11-25T15:43:46.279Z,2.13
2023-11-25T15:46:20.443Z,2.35
2023-11-25T15:48:54.681Z,3.50
2023-11-25T15:51:28.793Z,4.28
2023-11-25T15:54:04.328Z,4.47
2023-11-25T15:56:39.036Z,1.73
2023-11-25T15:59:13.186Z,3.25
2023-11-25T16:01:47.504Z,2.38
2023-11-25T16:04:22.254Z,2.95
2023-11-25T16:06:56.408Z,3.78
2023-11-25T16:09:32.170Z,4.88
2023-11-25T16:12:07.616Z,0.95
2023-11-25T16:14:41.724Z,4.97
2023-11-25T16:17:17.257Z,3.40
2023-11-25T16:19:51.381Z,3.78
2023-11-25T16:22:26.706Z,1.95
2023-11-25T16:25:02.798Z,2.83
2023-11-25T16:27:37.076Z,2.83
2023-11-25T16:30:15.044Z,6.40
2023-11-25T16:32:49.322Z,2.55
2023-11-25T16:35:23.820Z,3.67
2023-11-25T16:37:57.943Z,2.13
2023-11-25T16:40:33.797Z,1.60
2023-11-25T16:43:07.918Z,2.97
2023-11-25T16:45:42.073Z,3.53
2023-11-25T16:48:16.149Z,2.75
2023-11-25T16:50:50.421Z,1.98
2023-11-25T16:53:25.955Z,3.22
2023-11-25T16:56:01.981Z,4.13
2023-11-25T16:58:36.159Z,4.32
2023-11-25T17:01:11.231Z,2.15
2023-11-25T17:03:45.510Z,3.70
2023-11-25T17:06:19.892Z,3.40
2023-11-25T17:08:54.097Z,2.38
2023-11-25T17:11:29.532Z,4.75
2023-11-25T17:14:03.729Z,3.00
2023-11-25T17:16:37.907Z,2.95
2023-11-25T17:19:12.044Z,2.55
2023-11-25T17:21:46.113Z,4.03
2023-11-25T17:24:20.736Z,2.53
2023-11-25T17:26:56.773Z,1.67
2023-11-25T17:29:31.034Z,2.20
2023-11-25T17:32:05.732Z,2.03
2023-11-25T17:34:40.071Z,2.28
2023-11-25T17:37:14.392Z,2.35
2023-11-25T17:39:49.522Z,3.40
2023-11-25T17:42:25.398Z,2.55
2023-11-25T17:44:59.482Z,2.53
2023-11-25T17:47:34.108Z,2.55
2023-11-25T17:50:09.426Z,1.25
2023-11-25T17:52:43.579Z,1.63
2023-11-25T17:55:17.986Z,2.42
2023-11-25T17:57:53.437Z,2.28
2023-11-25T18:00:27.563Z,3.17
2023-11-25T18:03:01.829Z,2.65
2023-11-25T18:05:37.405Z,2.53
2023-11-25T18:08:11.663Z,3.72
2023-11-25T18:10:45.904Z,1.90
2023-11-25T18:13:22.073Z,1.40
2023-11-25T18:15:56.146Z,3.88
2023-11-25T18:18:31.562Z,5.80
2023-11-25T18:21:07.275Z,4.63
2023-11-25T18:23:41.441Z,3.50
2023-11-25T18:26:16.604Z,3.22
2023-11-25T18:28:52.219Z,3.17
2023-11-25T18:31:26.376Z,2.35
2023-11-25T18:34:00.493Z,2.58
2023-11-25T18:36:34.760Z,3.97
2023-11-25T18:39:10.980Z,2.25
2023-11-25T18:41:45.153Z,5.90
2023-11-25T18:44:20.612Z,4.13
2023-11-25T18:46:54.895Z,2.05
2023-11-25T18:49:29.193Z,0.95
2023-11-25T18:52:03.655Z,1.95
2023-11-25T18:54:38.313Z,2.60
2023-11-25T18:57:14.610Z,1.58
2023-11-25T18:59:50.623Z,1.80
2023-11-25T19:02:25.056Z,2.78
2023-11-25T19:04:59.555Z,3.03
2023-11-25T19:07:33.969Z,1.95
2023-11-25T19:10:09.301Z,2.85
2023-11-25T19:12:43.586Z,2.25
2023-11-25T19:15:19.113Z,2.15
2023-11-25T19:17:53.502Z,1.58
2023-11-25T19:20:27.945Z,5.68
2023-11-25T19:23:02.085Z,2.55
2023-11-25T19:25:37.524Z,3.50
2023-11-25T19:28:11.821Z,1.63
2023-11-25T19:30:48.280Z,4.00
2023-11-25T19:33:22.832Z,1.88
2023-11-25T19:35:57.228Z,1.55
2023-11-25T19:38:31.617Z,1.83
2023-11-25T19:41:05.916Z,1.60
2023-11-25T19:43:40.037Z,1.08
2023-11-25T19:46:16.259Z,1.25
2023-11-25T19:48:50.460Z,3.60
2023-11-25T19:51:24.639Z,3.97
2023-11-25T19:54:01.488Z,3.17
2023-11-25T19:56:38.945Z,3.10
2023-11-25T19:59:13.212Z,1.42
2023-11-25T20:01:48.847Z,4.15
2023-11-25T20:04:23.214Z,4.25
2023-11-25T20:07:00.023Z,2.03
2023-11-25T20:09:34.207Z,2.10
2023-11-25T20:12:11.136Z,0.95
2023-11-25T20:14:45.367Z,2.55
2023-11-25T20:17:23.749Z,3.75
2023-11-25T20:19:57.948Z,2.28
2023-11-25T20:22:32.040Z,3.83
2023-11-25T20:25:07.759Z,3.22
2023-11-25T20:27:41.990Z,1.63
2023-11-25T20:30:17.096Z,2.83
2023-11-25T20:32:52.985Z,3.00
2023-11-25T20:35:27.133Z,2.15
2023-11-25T20:38:01.358Z,3.67
2023-11-25T20:40:35.480Z,2.13
2023-11-25T20:43:09.589Z,2.03
2023-11-25T20:45:43.889Z,3.13
2023-11-25T20:48:19.776Z,2.05
2023-11-25T20:50:54.299Z,2.08
2023-11-25T20:53:28.455Z,2.20
2023-11-25T20:56:02.613Z,2.15
2023-11-25T20:58:36.770Z,1.23
2023-11-25T21:01:11.562Z,1.63
2023-11-25T21:03:47.105Z,1.70
2023-11-25T21:06:21.579Z,3.30
2023-11-25T21:08:55.713Z,2.78
2023-11-25T21:11:29.927Z,1.25
2023-11-25T21:14:04.034Z,1.80
2023-11-25T21:16:38.562Z,3.08
2023-11-25T21:19:14.420Z,2.03
2023-11-25T21:21:48.491Z,4.20
2023-11-25T21:24:22.746Z,2.45
2023-11-25T21:26:57.263Z,2.47
2023-11-25T21:29:31.933Z,2.70
2023-11-25T21:32:09.727Z,3.00
2023-11-25T21:34:45.653Z,1.88
2023-11-25T21:37:19.753Z,1.75
2023-11-25T21:39:53.925Z,2.67
2023-11-25T21:42:28.341Z,2.15
2023-11-25T21:45:02.473Z,2.33
2023-11-25T21:47:36.705Z,1.98
2023-11-25T21:50:13.032Z,1.60
2023-11-25T21:52:47.361Z,1.63
2023-11-25T21:55:21.505Z,3.63
2023-11-25T21:57:55.697Z,2.22
2023-11-25T22:00:29.798Z,1.27
2023-11-25T22:03:04.956Z,4.70
2023-11-25T22:05:41.269Z,3.40
2023-11-25T22:08:15.437Z,2.55
2023-11-25T22:10:49.617Z,4.18
2023-11-25T22:13:23.785Z,2.28
2023-11-25T22:15:58.218Z,3.15
2023-11-25T22:18:32.336Z,1.77
2023-11-25T22:21:08.322Z,4.93
2023-11-25T22:23:48.530Z,1.55
2023-11-25T22:26:32.905Z,3.35
2023-11-25T22:29:07.338Z,2.67
2023-11-25T22:31:41.628Z,5.43
2023-11-25T22:34:15.777Z,2.40
2023-11-25T22:36:51.250Z,4.13
2023-11-25T22:39:25.358Z,3.00
2023-11-25T22:41:59.586Z,2.83
2023-11-25T22:44:33.753Z,2.35
2023-11-25T22:47:07.989Z,2.60
2023-11-25T22:49:42.120Z,2.47
2023-11-25T22:52:17.825Z,1.90
2023-11-25T22:54:52.101Z,2.50
2023-11-25T22:57:26.837Z,3.28
2023-11-25T23:00:02.396Z,1.95
2023-11-25T23:02:36.753Z,2.90
2023-11-25T23:05:11.742Z,2.90
2023-11-25T23:07:47.412Z,3.17
2023-11-25T23:10:21.567Z,1.88
2023-11-25T23:12:55.683Z,1.85
2023-11-25T23:15:30.845Z,3.03
2023-11-25T23:18:05.136Z,1.40
2023-11-25T23:20:39.521Z,2.75
2023-11-25T23:23:15.093Z,1.90
2023-11-25T23:25:49.943Z,1.60
2023-11-25T23:28:24.546Z,1.80
2023-11-25T23:30:58.798Z,0.70
2023-11-25T23:33:32.960Z,1.45
2023-11-25T23:36:08.153Z,0.52
2023-11-25T23:38:43.642Z,0.82
2023-11-25T23:41:17.818Z,0.82
2023-11-25T23:43:52.157Z,0.90
2023-11-25T23:46:27.184Z,1.20
2023-11-25T23:49:02.123Z,0.90
2023-11-25T23:51:36.817Z,1.48
2023-11-25T23:54:12.328Z,1.15
2023-11-25T23:56:46.471Z,0.43
2023-11-25T23:59:20.611Z,1.23
